Strona główna
METAR-TAF:

METAR-TAF

Lotnisko :

Lotnisko Monmouth Executive

Belmar / Farmingdale, New Jersey, Stany Zjednoczone

Szerokość geograficzna: 40-11N, Długość geograficzna: 074-08W, wysokość: 48 m

Aktualna obserwacja pogody

Raport powstał 52 minut temu, godzina 00:56 UTC
Wiatr 5 kt od południe
Temperatura 23°C
Wilgotność 100%
Ciśnienie 1005 hPa
Widzialność: 16.1 km
Mało chmury na wysokości 5000 ft
Rozproszone chmury na wysokości 6500 ft
Rozproszone chmury na wysokości 8000 ft

METAR: KBLM 040056Z AUTO 18005KT 10SM FEW050 SCT065 SCT080 23/23 A2969 RMK AO2 RAB00E45 SLP054 P0001 T02280228

czas: 21:48 (01:48 UTC)


TAF: brakujący

Obserwacja i prognoza pogody dla ponad 4000 lotnisk (raport METAR i TAF).

Dostępne stacje oznaczono żółtymi i czerwonymi punktami na mapie.

Najedź kursorem aby zobaczyć nazwę stacji.

Kliknij aby zobaczyć obserwacje i prognozy pogody.

Aby zmienić mapę: kliknij na zielony przycisk z czarnym krzyżykiem, aby powiększyć; na zielony przycisk z myślnikiem, aby pomniejszyć; na zielone strzałki, aby przejść do map sąsiednich.


METAR-TAF: